Time;durP1;ratioP1;P1;durP2;ratioP2;P2;SDS_P1;SDS_P2;PMS_P1;PMS_P2;Temp;Humidity;BMP_temperature;BMP_pressure;BME280_temperature;BME280_humidity;BME280_pressure;Samples;Min_cycle;Max_cycle;Signal;HPM_P1;HPM_P2
2022/12/19 00:01:21;;;;;;;28.35;13.15;;;;;;;-8.07;100.00;100807.81;4201041;34;20063;-72
2022/12/19 00:03:51;;;;;;;;;;;;;;;-8.06;100.00;100805.12;4195702;34;20916;-74
2022/12/19 00:06:19;;;;;;;40.17;15.65;;;;;;;-7.60;100.00;100837.44;4195244;34;19938;-74
2022/12/19 00:08:48;;;;;;;40.05;16.87;;;;;;;-7.98;100.00;100828.19;4195757;34;20036;-74
2022/12/19 00:11:17;;;;;;;37.10;12.68;;;;;;;-8.41;100.00;100784.41;4192849;34;20104;-74
2022/12/19 00:13:44;;;;;;;37.33;14.93;;;;;;;-8.01;100.00;100822.31;4195451;34;20051;-74
2022/12/19 00:16:15;;;;;;;34.83;15.70;;;;;;;-8.15;100.00;100830.91;4203901;34;20076;-75
2022/12/19 00:18:43;;;;;;;;;;;;;;;-8.01;100.00;100827.53;4208110;34;20065;-74
2022/12/19 00:21:11;;;;;;;31.33;13.85;;;;;;;-7.99;100.00;100820.44;4206521;34;19984;-74
2022/12/19 00:23:38;;;;;;;39.30;11.20;;;;;;;-8.07;100.00;100826.13;4221549;34;21005;-75
2022/12/19 00:26:27;;;;;;;49.60;17.30;;;;;;;-8.12;100.00;100826.38;4222620;34;20074;-74
2022/12/19 00:28:58;;;;;;;29.23;11.60;;;;;;;-7.90;100.00;100812.09;4223445;33;20069;-74
2022/12/19 00:31:28;;;;;;;28.62;11.27;;;;;;;-8.16;100.00;100777.81;4250925;33;20038;-74
2022/12/19 00:33:54;;;;;;;27.85;12.90;;;;;;;-7.94;100.00;100797.53;4255482;33;20134;-73
2022/12/19 00:36:24;;;;;;;32.28;10.93;;;;;;;-8.35;100.00;100756.25;4278892;33;20079;-74
2022/12/19 00:38:52;;;;;;;27.17;11.43;;;;;;;-7.91;100.00;100761.56;4277880;33;20045;-73
2022/12/19 00:41:30;;;;;;;39.25;13.93;;;;;;;-7.88;100.00;100802.38;4277433;33;20077;-73
2022/12/19 00:43:59;;;;;;;37.42;12.25;;;;;;;-7.96;100.00;100789.75;4251078;33;20038;-73
2022/12/19 00:46:27;;;;;;;31.35;12.40;;;;;;;-8.15;100.00;100753.38;4238820;33;20031;-74
2022/12/19 00:48:54;;;;;;;31.80;11.95;;;;;;;-8.06;100.00;100786.81;4235359;33;20057;-74
2022/12/19 00:51:25;;;;;;;28.50;13.43;;;;;;;-8.34;100.00;100763.13;4235115;33;20253;-74
2022/12/19 00:53:53;;;;;;;37.08;14.00;;;;;;;-8.01;100.00;100777.88;4238278;33;20075;-74
2022/12/19 00:56:23;;;;;;;33.67;15.25;;;;;;;-8.50;100.00;100726.59;4250764;33;20186;-74
2022/12/19 00:58:51;;;;;;;17.65;6.78;;;;;;;-8.15;100.00;100787.34;4257444;33;20038;-74
2022/12/19 03:02:35;;;;;;;31.35;13.07;;;;;;;-8.67;100.00;100652.66;4266910;28;20429;-74
2022/12/19 03:05:23;;;;;;;22.62;9.02;;;;;;;-9.21;100.00;100626.91;4267666;33;20064;-74
2022/12/19 03:08:24;;;;;;;30.35;13.95;;;;;;;-8.74;100.00;100655.69;4251847;33;20569;-74
2022/12/19 03:11:14;;;;;;;33.30;13.27;;;;;;;-8.92;100.00;100662.78;4250698;33;20038;-74
2022/12/19 03:13:58;;;;;;;22.75;10.57;;;;;;;-8.85;100.00;100653.72;4245171;33;20026;-74
2022/12/19 03:16:25;;;;;;;40.60;15.50;;;;;;;-8.96;100.00;100656.91;4252217;33;20061;-73
2022/12/19 03:18:53;;;;;;;34.83;16.42;;;;;;;-9.27;100.00;100640.28;4255420;33;20168;-74
2022/12/19 03:21:28;;;;;;;37.50;14.52;;;;;;;-9.13;100.00;100631.72;4254232;33;20045;-74
2022/12/19 03:23:56;;;;;;;19.80;9.45;;;;;;;-9.30;100.00;100606.56;4252384;33;20076;-73
2022/12/19 03:26:27;;;;;;;24.27;9.93;;;;;;;-9.06;100.00;100655.72;4254549;33;20081;-74
2022/12/19 03:29:00;;;;;;;32.72;11.93;;;;;;;-9.03;100.00;100659.00;4254956;33;20068;-74
2022/12/19 03:31:30;;;;;;;6.55;4.25;;;;;;;-8.90;100.00;100667.00;4251752;33;20486;-73
2022/12/19 03:34:21;;;;;;;17.83;7.45;;;;;;;-9.46;100.00;100626.56;4251947;33;20077;-74
2022/12/19 03:36:58;;;;;;;24.98;9.88;;;;;;;-9.23;100.00;100623.56;4251589;33;20092;-74
2022/12/19 03:39:26;;;;;;;24.90;10.73;;;;;;;-9.14;100.00;100628.28;4263090;33;20426;-75
2022/12/19 03:44:42;;;;;;;32.55;10.60;;;;;;;-9.04;100.00;100670.38;4234008;33;20550;-74
2022/12/19 03:47:17;;;;;;;36.70;12.05;;;;;;;-9.19;100.00;100651.19;4223420;34;20094;-74
2022/12/19 03:49:45;;;;;;;31.35;10.55;;;;;;;-8.90;100.00;100663.53;4222523;34;20045;-74
2022/12/19 03:52:30;;;;;;;38.83;14.43;;;;;;;-9.51;100.00;100613.75;4222088;34;20499;-74
2022/12/19 03:55:05;;;;;;;23.90;8.68;;;;;;;-9.22;100.00;100656.56;4223145;34;20043;-75
2022/12/19 03:57:40;;;;;;;27.00;11.43;;;;;;;-9.44;100.00;100645.56;4222636;33;20042;-74
2022/12/19 04:00:13;;;;;;;29.37;10.90;;;;;;;-9.40;100.00;100652.31;4235198;33;20065;-74
2022/12/19 04:02:48;;;;;;;24.48;10.55;;;;;;;-9.27;100.00;100648.13;4235636;33;20971;-75
2022/12/19 04:05:18;;;;;;;34.65;13.20;;;;;;;-9.57;100.00;100634.94;4236920;33;20124;-74
2022/12/19 04:07:47;;;;;;;42.37;17.37;;;;;;;-9.43;100.00;100645.47;4236013;33;20035;-75
2022/12/19 04:10:17;;;;;;;35.70;13.35;;;;;;;-9.63;100.00;100630.91;4237098;33;20163;-75
2022/12/19 04:12:49;;;;;;;38.35;14.00;;;;;;;-9.50;100.00;100637.16;4247732;33;20058;-74
2022/12/19 04:15:16;;;;;;;29.10;8.20;;;;;;;-9.84;100.00;100613.78;4264903;33;20430;-73
2022/12/19 04:17:51;;;;;;;38.75;15.02;;;;;;;-9.62;100.00;100645.66;4248721;33;20076;-74
2022/12/19 04:20:23;;;;;;;34.53;13.65;;;;;;;-9.55;100.00;100627.91;4238112;33;20511;-73
2022/12/19 04:23:07;;;;;;;36.23;14.27;;;;;;;-9.55;100.00;100627.91;4236866;33;20240;-74
2022/12/19 04:25:38;;;;;;;39.78;15.15;;;;;;;-9.74;100.00;100633.25;4236147;33;20083;-74
2022/12/19 04:28:13;;;;;;;20.37;10.13;;;;;;;-9.72;100.00;100628.78;4235169;33;20057;-73
2022/12/19 04:30:43;;;;;;;35.85;13.57;;;;;;;-9.55;100.00;100636.56;4241129;33;20035;-73
2022/12/19 04:33:10;;;;;;;35.60;13.52;;;;;;;-9.97;100.00;100590.13;4249231;33;20041;-73
2022/12/19 04:35:36;;;;;;;21.90;10.88;;;;;;;-10.11;100.00;100572.63;4250969;33;20080;-74
2022/12/19 04:38:03;;;;;;;29.05;12.23;;;;;;;-10.03;100.00;100609.53;4249377;33;20056;-74
2022/12/19 04:40:29;;;;;;;27.95;13.75;;;;;;;-10.17;100.00;100596.37;4259353;33;20074;-74
2022/12/19 04:42:56;;;;;;;29.70;12.13;;;;;;;-10.13;100.00;100616.13;4249391;33;20046;-74
2022/12/19 04:45:22;;;;;;;42.78;16.48;;;;;;;-9.91;100.00;100618.47;4249848;33;20038;-72
2022/12/19 04:47:49;;;;;;;28.42;13.13;;;;;;;-10.08;100.00;100624.56;4253574;33;20096;-73
2022/12/19 04:50:15;;;;;;;38.22;14.20;;;;;;;-10.06;100.00;100612.28;4268165;33;20056;-73
2022/12/19 04:52:42;;;;;;;35.10;15.57;;;;;;;-9.99;100.00;100602.41;4243209;33;20080;-74
2022/12/19 04:55:09;;;;;;;33.55;15.18;;;;;;;-10.42;100.00;100554.22;4225644;33;20027;-74
2022/12/19 04:57:35;;;;;;;48.15;20.00;;;;;;;-10.14;100.00;100601.44;4223167;33;20057;-74
2022/12/19 05:00:05;;;;;;;32.38;12.10;;;;;;;-10.25;100.00;100591.56;4217747;34;20054;-74
2022/12/19 05:02:32;;;;;;;41.95;19.05;;;;;;;-10.06;100.00;100591.44;4229479;33;20047;-73
2022/12/19 05:04:58;;;;;;;30.15;12.43;;;;;;;-10.21;100.00;100595.66;4231794;33;20515;-74
2022/12/19 05:07:25;;;;;;;47.30;16.08;;;;;;;-10.29;100.00;100596.09;4229686;33;20450;-75
2022/12/19 05:09:51;;;;;;;40.75;16.55;;;;;;;-10.14;100.00;100591.00;4230589;34;20231;-74
2022/12/19 05:12:18;;;;;;;42.55;18.40;;;;;;;-10.15;100.00;100586.72;4240997;33;20047;-75
2022/12/19 05:14:44;;;;;;;42.55;16.70;;;;;;;-10.13;100.00;100595.28;4239311;33;20053;-74
2022/12/19 05:17:11;;;;;;;49.42;20.17;;;;;;;-10.45;100.00;100549.16;4238816;33;20046;-73
2022/12/19 05:19:37;;;;;;;42.60;17.77;;;;;;;-10.26;100.00;100585.50;4224040;34;20042;-74
2022/12/19 05:22:03;;;;;;;44.42;14.80;;;;;;;-10.71;100.00;100490.59;4215170;34;20538;-74
2022/12/19 05:24:30;;;;;;;44.97;18.10;;;;;;;-10.14;100.00;100578.81;4209685;34;20562;-73
2022/12/19 05:26:56;;;;;;;38.55;15.63;;;;;;;-10.23;100.00;100577.53;4209322;34;20220;-73
2022/12/19 05:29:23;;;;;;;42.58;17.05;;;;;;;-10.17;100.00;100588.56;4210801;34;20035;-73
2022/12/19 05:31:49;;;;;;;41.05;15.75;;;;;;;-10.36;100.00;100542.63;4226350;33;20094;-74
2022/12/19 05:34:15;;;;;;;29.10;12.80;;;;;;;-10.49;100.00;100542.41;4211152;34;20297;-74
2022/12/19 05:36:42;;;;;;;35.85;13.20;;;;;;;-10.47;100.00;100524.13;4196085;34;20051;-73
2022/12/19 05:39:08;;;;;;;39.00;17.50;;;;;;;-10.06;100.00;100573.22;4195003;34;20031;-73
2022/12/19 05:41:35;;;;;;;53.90;17.87;;;;;;;-10.28;100.00;100576.91;4207705;34;20062;-75
2022/12/19 05:44:02;;;;;;;41.08;16.65;;;;;;;-10.28;100.00;100576.06;4200623;34;20055;-73
2022/12/19 05:46:28;;;;;;;45.00;17.73;;;;;;;-10.24;100.00;100567.19;4196317;34;20065;-74
2022/12/19 05:48:55;;;;;;;40.03;16.65;;;;;;;-10.35;100.00;100570.38;4198010;34;20095;-74
2022/12/19 05:51:22;;;;;;;40.75;17.17;;;;;;;-10.28;100.00;100574.31;4195541;34;20047;-74
2022/12/19 05:53:48;;;;;;;49.33;20.00;;;;;;;-10.75;100.00;100509.03;4196638;34;20336;-73
2022/12/19 05:56:19;;;;;;;59.75;21.10;;;;;;;-10.35;100.00;100559.97;4196652;34;20088;-74
2022/12/19 05:58:47;;;;;;;43.63;15.02;;;;;;;-10.19;100.00;100569.53;4197408;34;20031;-74
2022/12/19 06:01:21;;;;;;;65.10;15.88;;;;;;;-10.18;100.00;100571.22;4194943;34;20055;-73
2022/12/19 06:03:48;;;;;;;36.13;13.15;;;;;;;-10.16;100.00;100565.03;4197284;34;20402;-73
2022/12/19 06:06:17;;;;;;;47.28;20.25;;;;;;;-10.65;100.00;100512.88;4196088;34;20073;-74
2022/12/19 06:08:43;;;;;;;39.20;14.20;;;;;;;-10.16;100.00;100559.81;4187382;34;20069;-73
2022/12/19 06:11:11;;;;;;;63.03;23.67;;;;;;;-10.72;100.00;100509.75;4192137;34;20434;-74
2022/12/19 06:13:38;;;;;;;51.15;19.17;;;;;;;-10.41;100.00;100555.06;4228665;33;20043;-74
2022/12/19 06:16:09;;;;;;;56.67;21.30;;;;;;;-10.35;100.00;100549.53;4250597;33;20413;-74
2022/12/19 06:18:36;;;;;;;45.47;17.65;;;;;;;-10.37;100.00;100540.09;4251980;33;20088;-77
2022/12/19 06:21:04;;;;;;;60.92;20.08;;;;;;;-10.66;100.00;100498.16;4249987;33;20030;-76
2022/12/19 06:23:33;;;;;;;41.00;15.38;;;;;;;-10.31;100.00;100544.97;4252220;33;20055;-75
2022/12/19 06:26:02;;;;;;;41.10;18.90;;;;;;;-10.09;100.00;100534.28;4252562;33;20417;-76
2022/12/19 06:28:29;;;;;;;55.47;25.08;;;;;;;-10.31;100.00;100513.72;4256855;33;20363;-75
2022/12/19 06:30:57;;;;;;;30.33;11.98;;;;;;;-10.41;100.00;100555.87;4252273;33;20087;-74
2022/12/19 06:33:25;;;;;;;49.33;14.63;;;;;;;-10.67;100.00;100497.34;4238047;33;20039;-75
2022/12/19 06:36:05;;;;;;;44.88;19.52;;;;;;;-10.49;100.00;100499.94;4238970;33;20070;-76
2022/12/19 06:38:33;;;;;;;30.95;12.52;;;;;;;-10.07;100.00;100540.25;4238815;33;20494;-74
2022/12/19 06:43:46;;;;;;;51.03;17.42;;;;;;;-10.23;100.00;100543.66;4224957;34;20035;-75
2022/12/19 06:46:13;;;;;;;53.95;17.60;;;;;;;-10.28;100.00;100550.03;4224643;34;20043;-77
2022/12/19 06:48:39;;;;;;;36.80;14.40;;;;;;;-10.26;100.00;100554.25;4224656;34;20039;-75
2022/12/19 06:51:06;;;;;;;46.20;21.02;;;;;;;-10.28;100.00;100556.06;4222953;33;20047;-75
2022/12/19 06:53:32;;;;;;;44.40;16.17;;;;;;;-10.41;100.00;100534.22;4215591;34;20074;-74
2022/12/19 06:55:59;;;;;;;40.50;16.02;;;;;;;-10.53;100.00;100473.22;4223214;34;20452;-74
2022/12/19 06:58:26;;;;;;;49.50;22.00;;;;;;;-10.19;100.00;100527.84;4220630;34;20030;-76
2022/12/19 07:00:53;;;;;;;53.15;17.25;;;;;;;-10.51;100.00;100497.41;4208362;34;20047;-75
2022/12/19 07:03:26;;;;;;;48.50;17.23;;;;;;;-10.67;100.00;100481.72;4219952;33;20047;-75
2022/12/19 07:05:52;;;;;;;56.47;21.10;;;;;;;-10.66;100.00;100426.13;4249998;33;20068;-75
2022/12/19 07:08:19;;;;;;;37.17;15.82;;;;;;;-10.37;100.00;100519.28;4235546;33;20075;-75
2022/12/19 07:10:45;;;;;;;47.78;20.08;;;;;;;-10.74;100.00;100488.16;4233889;33;20058;-75
2022/12/19 07:13:12;;;;;;;54.78;23.50;;;;;;;-10.46;100.00;100515.41;4233640;33;20046;-75
2022/12/19 07:15:39;;;;;;;50.95;19.45;;;;;;;-10.34;100.00;100514.75;4235961;33;20077;-75
2022/12/19 07:18:08;;;;;;;59.97;20.67;;;;;;;-10.12;100.00;100524.03;4237122;33;20068;-75
2022/12/19 07:20:37;;;;;;;56.30;20.80;;;;;;;-10.19;100.00;100507.00;4237834;33;20038;-75
2022/12/19 07:23:05;;;;;;;48.87;19.98;;;;;;;-10.23;100.00;100511.56;4249102;33;20060;-75
2022/12/19 07:25:32;;;;;;;59.35;23.87;;;;;;;-10.32;100.00;100507.69;4237216;33;20078;-75
2022/12/19 07:27:59;;;;;;;63.10;27.52;;;;;;;-10.52;100.00;100464.47;4237724;33;20380;-75
2022/12/19 07:30:26;;;;;;;61.95;21.52;;;;;;;-10.27;100.00;100513.47;4238250;33;20051;-75
2022/12/19 07:32:52;;;;;;;43.22;14.80;;;;;;;-10.19;100.00;100523.50;4237589;33;20052;-76
2022/12/19 07:35:22;;;;;;;47.10;19.23;;;;;;;-10.31;100.00;100485.91;4236022;33;20320;-76
2022/12/19 07:37:49;;;;;;;43.40;16.77;;;;;;;-10.01;100.00;100521.69;4235093;33;20050;-76
2022/12/19 07:40:16;;;;;;;44.85;17.23;;;;;;;-9.95;100.00;100531.78;4238152;33;20060;-76
2022/12/19 07:42:43;;;;;;;41.22;15.60;;;;;;;-10.31;100.00;100488.50;4238194;33;20042;-76
2022/12/19 07:45:11;;;;;;;34.38;16.30;;;;;;;-9.93;100.00;100526.50;4221774;34;20060;-76
2022/12/19 07:47:37;;;;;;;49.08;19.37;;;;;;;-10.24;100.00;100528.94;4223178;34;20026;-76
2022/12/19 07:50:04;;;;;;;59.25;21.90;;;;;;;-10.15;100.00;100534.59;4209198;34;20032;-77
2022/12/19 07:52:30;;;;;;;53.63;16.67;;;;;;;-10.40;100.00;100486.44;4209857;34;20111;-75
2022/12/19 07:54:57;;;;;;;45.20;15.55;;;;;;;-9.95;100.00;100538.78;4208394;34;20163;-75
2022/12/19 07:57:23;;;;;;;52.30;19.00;;;;;;;-10.27;100.00;100484.00;4220518;33;20116;-75
2022/12/19 07:59:50;;;;;;;51.95;19.60;;;;;;;-10.62;100.00;100447.66;4223075;34;20064;-75
2022/12/19 08:02:16;;;;;;;61.95;18.60;;;;;;;-10.08;100.00;100509.94;4222739;34;20065;-75
2022/12/19 08:04:43;;;;;;;40.75;15.77;;;;;;;-9.95;100.00;100523.97;4239017;33;20042;-76
2022/12/19 08:07:09;;;;;;;65.75;24.25;;;;;;;-9.85;100.00;100519.09;4245322;33;20039;-77
2022/12/19 08:09:36;;;;;;;56.63;18.60;;;;;;;-9.88;100.00;100507.06;4231322;33;20204;-75
2022/12/19 08:12:03;;;;;;;46.37;18.87;;;;;;;-9.71;100.00;100513.16;4234896;33;20088;-76
2022/12/19 08:14:29;;;;;;;48.78;20.12;;;;;;;-9.46;100.00;100511.78;4237849;33;20060;-75
2022/12/19 08:16:55;;;;;;;55.05;22.77;;;;;;;-9.70;100.00;100515.69;4235781;33;20046;-76
2022/12/19 08:19:22;;;;;;;46.60;15.75;;;;;;;-9.96;100.00;100451.91;4235081;33;20034;-75
2022/12/19 08:21:49;;;;;;;45.12;18.25;;;;;;;-9.61;100.00;100496.06;4230607;33;20430;-76
2022/12/19 08:24:16;;;;;;;45.78;16.65;;;;;;;-9.53;100.00;100506.09;4239613;33;20225;-75
2022/12/19 08:26:42;;;;;;;46.40;16.15;;;;;;;-9.51;100.00;100467.72;4242927;33;20041;-75
2022/12/19 08:29:09;;;;;;;40.00;13.60;;;;;;;-9.46;100.00;100496.16;4253337;33;20187;-75
2022/12/19 08:31:35;;;;;;;45.47;18.00;;;;;;;-9.51;100.00;100463.34;4253183;33;20050;-74
2022/12/19 08:34:02;;;;;;;40.25;13.82;;;;;;;-9.24;100.00;100501.00;4240628;33;20348;-76
2022/12/19 08:36:29;;;;;;;56.22;21.12;;;;;;;-9.25;100.00;100494.97;4232458;33;20817;-74
2022/12/19 08:38:55;;;;;;;45.53;17.87;;;;;;;-9.33;100.00;100476.28;4224962;33;20499;-75
2022/12/19 08:41:22;;;;;;;58.45;23.77;;;;;;;-9.23;100.00;100493.09;4245639;33;20038;-74
2022/12/19 08:43:50;;;;;;;49.85;17.87;;;;;;;-9.14;100.00;100481.31;4252338;33;20064;-74
2022/12/19 08:46:18;;;;;;;57.50;24.65;;;;;;;-8.91;100.00;100493.03;4238289;33;20042;-77
2022/12/19 08:48:45;;;;;;;62.35;26.65;;;;;;;-9.38;100.00;100441.78;4254599;33;20539;-76
2022/12/19 08:51:12;;;;;;;56.00;19.83;;;;;;;-9.49;100.00;100437.19;4250616;33;20086;-75
2022/12/19 08:53:41;;;;;;;51.72;21.52;;;;;;;-9.01;100.00;100491.88;4233651;33;20069;-75
2022/12/19 08:56:21;;;;;;;59.47;22.05;;;;;;;-9.32;100.00;100446.66;4239855;33;20065;-75
2022/12/19 08:58:50;;;;;;;58.38;23.75;;;;;;;-8.94;100.00;100493.19;4238451;33;20390;-75
2022/12/19 09:01:18;;;;;;;59.17;23.95;;;;;;;-8.84;100.00;100496.97;4251824;33;20034;-74
2022/12/19 09:03:46;;;;;;;48.33;20.30;;;;;;;-8.86;100.00;100488.37;4253901;33;20088;-73
2022/12/19 09:06:13;;;;;;;55.65;23.73;;;;;;;-9.03;100.00;100478.91;4249379;33;20254;-73
2022/12/19 09:08:46;;;;;;;44.20;16.73;;;;;;;-9.15;100.00;100464.78;4251650;33;20027;-74
2022/12/19 09:32:52;;;;;;;60.90;24.52;;;;;;;-8.01;100.00;100424.94;4442511;32;20558;-74
2022/12/19 09:35:21;;;;;;;59.45;17.85;;;;;;;-8.01;100.00;100424.94;4425208;32;20089;-74
2022/12/19 09:37:50;;;;;;;25.12;11.77;;;;;;;-8.40;100.00;100409.84;4428386;32;20422;-75
2022/12/19 09:40:18;;;;;;;42.08;15.50;;;;;;;-8.32;100.00;100372.78;4427532;32;20130;-75
2022/12/19 09:43:03;;;;;;;52.65;20.77;;;;;;;-8.12;100.00;100387.25;4394551;32;20060;-76
2022/12/19 09:45:45;;;;;;;42.62;15.55;;;;;;;-7.75;100.00;100394.53;4391132;32;20100;-75
2022/12/19 09:48:17;;;;;;;62.45;21.58;;;;;;;-7.62;100.00;100384.09;4395020;32;20152;-74
2022/12/19 09:51:08;;;;;;;54.45;19.50;;;;;;;-7.78;100.00;100395.56;4390892;32;20054;-74
2022/12/19 09:53:48;;;;;;;60.83;22.67;;;;;;;-7.71;100.00;100357.59;4397563;32;20150;-75
2022/12/19 09:56:15;;;;;;;58.50;24.63;;;;;;;-7.63;100.00;100378.00;4390700;32;20450;-73
2022/12/19 09:58:48;;;;;;;43.22;18.40;;;;;;;-7.96;100.00;100365.34;4395850;32;20221;-74
2022/12/19 10:01:31;;;;;;;50.78;19.92;;;;;;;-7.86;100.00;100353.38;4394304;32;20042;-73
2022/12/19 10:04:14;;;;;;;53.83;19.92;;;;;;;-7.99;100.00;100287.09;4392889;32;20389;-74
2022/12/19 10:06:41;;;;;;;50.95;18.80;;;;;;;-7.80;100.00;100321.59;4379000;32;20454;-75
2022/12/19 10:09:20;;;;;;;50.75;23.02;;;;;;;-7.67;100.00;100346.00;4370994;32;20410;-74
2022/12/19 10:11:50;;;;;;;44.03;19.48;;;;;;;-7.51;100.00;100361.53;4369300;32;20039;-75
2022/12/19 10:14:40;;;;;;;43.35;20.00;;;;;;;-7.30;100.00;100359.25;4400966;32;20100;-74
2022/12/19 10:17:31;;;;;;;59.50;22.02;;;;;;;-7.30;100.00;100343.56;4398438;32;20051;-74
2022/12/19 10:20:18;;;;;;;51.90;16.30;;;;;;;-7.45;100.00;100318.44;4381922;32;20031;-74
2022/12/19 10:23:12;;;;;;;44.28;20.05;;;;;;;-7.59;100.00;100276.66;4378439;32;20088;-74
2022/12/19 10:26:15;;;;;;;47.97;20.33;;;;;;;-7.04;100.00;100317.38;4383226;32;20042;-73
2022/12/19 10:29:19;;;;;;;39.53;16.50;;;;;;;-7.20;100.00;100285.34;4384692;32;20047;-73
2022/12/19 10:32:17;;;;;;;36.08;14.50;;;;;;;-6.84;100.00;100320.44;4374854;32;20035;-74
2022/12/19 10:34:49;;;;;;;35.03;16.20;;;;;;;-7.03;100.00;100266.72;4345788;32;20106;-74
2022/12/19 10:37:24;;;;;;;45.38;19.23;;;;;;;-7.03;100.00;100303.38;4356376;32;20035;-73
2022/12/19 10:39:53;;;;;;;47.83;18.17;;;;;;;-6.60;100.00;100305.63;4360343;32;20083;-74
2022/12/19 10:42:31;;;;;;;42.67;14.87;;;;;;;-6.94;100.00;100302.75;4369195;32;20054;-74
2022/12/19 10:45:00;;;;;;;31.60;14.87;;;;;;;-6.63;100.00;100303.22;4358762;32;20451;-73
2022/12/19 10:47:26;;;;;;;42.75;18.23;;;;;;;-6.46;100.00;100295.94;4366343;32;20074;-74
2022/12/19 10:49:53;;;;;;;32.47;12.68;;;;;;;-6.65;100.00;100286.78;4363694;32;20055;-74
2022/12/19 10:52:46;;;;;;;36.88;15.82;;;;;;;-6.64;100.00;100280.56;4365870;32;20032;-74
2022/12/19 10:55:46;;;;;;;40.88;17.05;;;;;;;-6.63;100.00;100290.12;4369175;32;20044;-74
2022/12/19 10:58:25;;;;;;;46.03;18.90;;;;;;;-6.70;100.00;100252.22;4363939;32;20074;-74
2022/12/19 11:01:04;;;;;;;51.90;18.75;;;;;;;-7.00;100.00;100229.03;4369816;32;20480;-74
2022/12/19 11:03:33;;;;;;;33.05;13.98;;;;;;;-6.50;100.00;100221.13;4368609;32;20039;-74
2022/12/19 11:06:01;;;;;;;25.40;13.57;;;;;;;-6.79;100.00;100214.41;4368296;32;20061;-73
2022/12/19 11:08:30;;;;;;;35.15;15.27;;;;;;;-6.43;100.00;100264.25;4369129;32;20083;-75
2022/12/19 11:11:03;;;;;;;49.10;19.52;;;;;;;-6.14;100.00;100253.44;4370257;32;20368;-74
2022/12/19 11:13:32;;;;;;;35.72;11.93;;;;;;;-6.32;100.00;100198.78;4402229;32;20394;-74
2022/12/19 11:16:00;;;;;;;40.80;16.17;;;;;;;-6.20;100.00;100246.87;4403809;32;20039;-74
2022/12/19 11:18:36;;;;;;;41.55;18.23;;;;;;;-6.03;100.00;100235.16;4417323;32;20378;-73
2022/12/19 11:21:21;;;;;;;45.45;15.27;;;;;;;-5.93;100.00;100220.37;4417302;32;20332;-74
2022/12/19 11:23:53;;;;;;;48.42;17.12;;;;;;;-5.96;100.00;100225.84;4398387;32;20086;-74
2022/12/19 11:26:34;;;;;;;30.02;14.27;;;;;;;-5.94;100.00;100228.38;4399088;32;20495;-74
2022/12/19 11:29:15;;;;;;;33.35;12.37;;;;;;;-6.17;100.00;100222.22;4400401;32;20023;-74
2022/12/19 11:31:44;;;;;;;39.90;14.35;;;;;;;-6.03;100.00;100220.25;4383741;32;20051;-74
2022/12/19 11:34:22;;;;;;;43.00;14.80;;;;;;;-6.38;100.00;100183.53;4338709;33;20027;-74
2022/12/19 11:39:49;;;;;;;34.10;15.68;;;;;;;-5.88;100.00;100218.25;4340383;33;20058;-73
2022/12/19 11:42:15;;;;;;;28.40;9.30;;;;;;;-5.94;100.00;100218.69;4337657;33;20062;-73
2022/12/19 11:44:52;;;;;;;45.47;17.80;;;;;;;-5.78;100.00;100202.66;4322861;33;20074;-73
2022/12/19 11:47:48;;;;;;;48.63;19.23;;;;;;;-5.74;100.00;100142.94;4323855;33;20115;-73
2022/12/19 11:50:25;;;;;;;41.15;15.18;;;;;;;-5.55;100.00;100176.44;4294005;33;20032;-73
2022/12/19 11:53:14;;;;;;;49.17;17.45;;;;;;;-5.42;100.00;100181.62;4324323;33;20044;-73
2022/12/19 11:55:50;;;;;;;39.88;17.50;;;;;;;-5.68;100.00;100135.41;4309221;33;20033;-73
2022/12/19 11:58:17;;;;;;;41.58;17.73;;;;;;;-5.33;100.00;100180.88;4310337;33;20071;-73
2022/12/19 12:03:45;;;;;;;30.67;10.68;;;;;;;-5.58;100.00;100161.78;4284852;33;20066;-73
2022/12/19 12:06:16;;;;;;;21.73;8.27;;;;;;;-5.14;100.00;100170.62;4306751;33;20045;-73
2022/12/19 12:08:53;;;;;;;37.60;14.57;;;;;;;-5.14;100.00;100165.38;4310103;33;20048;-74
2022/12/19 12:11:28;;;;;;;44.58;18.77;;;;;;;-5.26;100.00;100166.34;4280983;33;20650;-74
2022/12/19 12:13:55;;;;;;;31.30;12.43;;;;;;;-5.15;100.00;100155.81;4279464;33;20042;-75
2022/12/19 12:16:30;;;;;;;43.47;16.02;;;;;;;-5.31;100.00;100108.09;4280157;33;20063;-75
2022/12/19 12:19:06;;;;;;;34.78;12.07;;;;;;;-4.90;100.00;100155.66;4279277;33;20103;-74
2022/12/19 12:21:49;;;;;;;32.10;12.45;;;;;;;-4.75;100.00;100134.25;4280435;33;20075;-75
2022/12/19 12:24:57;;;;;;;39.22;12.63;;;;;;;-4.99;100.00;100138.84;4280759;33;20049;-73
2022/12/19 12:27:36;;;;;;;33.20;12.00;;;;;;;-4.89;100.00;100134.53;4284261;33;20033;-73
2022/12/19 12:30:15;;;;;;;36.55;14.00;;;;;;;-5.36;100.00;100094.47;4321154;33;20078;-74
2022/12/19 12:32:41;;;;;;;39.78;14.00;;;;;;;-5.27;100.00;100080.63;4323863;33;20077;-74
2022/12/19 12:35:27;;;;;;;25.77;11.18;;;;;;;-5.03;100.00;100125.09;4324588;33;20062;-74
2022/12/19 12:38:31;;;;;;;31.45;13.13;;;;;;;-4.91;100.00;100120.69;4322090;33;20036;-73
2022/12/19 12:41:16;;;;;;;36.72;14.32;;;;;;;-5.20;100.00;100113.34;4322850;33;20201;-73
2022/12/19 12:43:57;;;;;;;39.72;15.95;;;;;;;-5.12;100.00;100128.50;4323563;33;20032;-74
2022/12/19 12:46:27;;;;;;;34.03;12.93;;;;;;;-5.16;100.00;100104.25;4324005;33;20078;-74
2022/12/19 12:49:02;;;;;;;40.67;15.30;;;;;;;-5.32;100.00;100119.53;4322467;33;20059;-74
2022/12/19 12:51:32;;;;;;;37.80;14.82;;;;;;;-5.37;100.00;100105.94;4333885;33;20452;-74
2022/12/19 12:54:09;;;;;;;36.67;14.20;;;;;;;-5.66;100.00;100085.44;4336217;33;20061;-73
2022/12/19 12:56:36;;;;;;;24.45;10.13;;;;;;;-5.39;100.00;100118.34;4329302;33;20043;-73
2022/12/19 12:59:24;;;;;;;32.83;13.77;;;;;;;-5.64;100.00;100096.66;4336910;33;20361;-72
2022/12/19 13:02:16;;;;;;;25.73;11.70;;;;;;;-5.53;100.00;100104.53;4332714;33;20159;-73
2022/12/19 13:04:57;;;;;;;;;;;;;;;-5.38;100.00;100114.78;4319886;33;20052;-73
2022/12/19 13:07:28;;;;;;;41.45;15.45;;;;;;;-5.32;100.00;100117.75;4337172;33;20379;-73
2022/12/19 13:10:21;;;;;;;35.28;13.62;;;;;;;-5.56;100.00;100080.31;4336373;33;20023;-72
2022/12/19 13:12:58;;;;;;;;;;;;;;;-5.42;100.00;100118.63;4338191;33;20044;-72
2022/12/19 13:15:27;;;;;;;43.13;14.85;;;;;;;-5.18;100.00;100114.03;4332830;33;19990;-73
2022/12/19 13:17:53;;;;;;;36.75;13.68;;;;;;;-5.42;100.00;100113.38;4332643;33;20048;-72
2022/12/19 13:20:23;;;;;;;32.10;14.27;;;;;;;-5.66;100.00;100102.00;4314851;33;20051;-73
2022/12/19 13:22:56;;;;;;;34.58;13.27;;;;;;;-5.96;100.00;100058.00;4310705;33;20036;-72
2022/12/19 13:25:25;;;;;;;40.92;16.23;;;;;;;-5.68;100.00;100092.56;4291328;33;20104;-72
2022/12/19 13:27:57;;;;;;;33.97;13.45;;;;;;;-5.49;100.00;100090.22;4267138;33;20038;-73
2022/12/19 13:30:24;;;;;;;45.15;15.68;;;;;;;-5.51;100.00;100089.47;4279858;33;20053;-73
2022/12/19 13:32:50;;;;;;;34.45;13.38;;;;;;;-5.67;100.00;100073.28;4277740;33;20038;-72
2022/12/19 13:35:17;;;;;;;23.85;8.40;;;;;;;-5.83;100.00;100073.63;4272856;33;20065;-72
2022/12/19 13:37:58;;;;;;;37.13;13.80;;;;;;;-5.69;100.00;100064.69;4268359;33;20045;-72
2022/12/19 13:40:27;;;;;;;34.38;14.30;;;;;;;-5.68;100.00;100040.09;4264707;33;20434;-72
2022/12/19 13:46:03;;;;;;;44.72;19.02;;;;;;;-5.91;100.00;100029.63;4262633;33;20123;-72
2022/12/19 13:48:40;;;;;;;41.25;16.92;;;;;;;-5.66;100.00;100051.34;4262011;33;20058;-72
2022/12/19 13:51:08;;;;;;;41.75;13.93;;;;;;;-6.03;100.00;100007.00;4244844;33;20099;-71
2022/12/19 13:53:36;;;;;;;45.30;16.85;;;;;;;-6.20;100.00;99987.34;4248288;33;20068;-72
2022/12/19 13:56:16;;;;;;;44.17;19.70;;;;;;;-6.18;100.00;99980.19;4252216;33;20080;-71
2022/12/19 13:59:00;;;;;;;46.40;19.17;;;;;;;-5.73;100.00;100031.75;4276311;33;20057;-71
2022/12/19 14:01:36;;;;;;;;;;;;;;;-5.87;100.00;100023.19;4289912;33;20414;-73